createdAt,value
2022-10-11T00:01:36.317Z,7.90
2022-10-11T00:04:04.848Z,7.90
2022-10-11T00:06:31.733Z,7.80
2022-10-11T00:08:58.645Z,7.80
2022-10-11T00:11:25.900Z,7.80
2022-10-11T00:13:52.741Z,7.80
2022-10-11T00:16:19.543Z,7.70
2022-10-11T00:18:46.372Z,7.80
2022-10-11T00:21:16.182Z,7.70
2022-10-11T00:23:43.462Z,7.60
2022-10-11T00:26:11.218Z,7.60
2022-10-11T00:28:39.607Z,7.60
2022-10-11T00:31:08.072Z,7.60
2022-10-11T00:33:35.175Z,7.60
2022-10-11T00:36:02.445Z,7.50
2022-10-11T00:38:32.084Z,7.50
2022-10-11T00:40:59.124Z,7.50
2022-10-11T00:43:29.589Z,7.50
2022-10-11T00:46:07.121Z,7.50
2022-10-11T00:48:39.938Z,7.50
2022-10-11T00:51:14.034Z,7.40
2022-10-11T00:53:42.729Z,7.40
2022-10-11T00:56:14.982Z,7.40
2022-10-11T00:58:42.770Z,7.40
2022-10-11T01:01:09.759Z,7.40
2022-10-11T01:03:39.127Z,7.50
2022-10-11T01:06:06.978Z,7.40
2022-10-11T01:08:34.634Z,7.50
2022-10-11T01:11:06.329Z,7.50
2022-10-11T01:13:48.200Z,7.50
2022-10-11T01:16:23.993Z,7.50
2022-10-11T01:19:00.451Z,7.50
2022-10-11T01:21:39.157Z,7.50
2022-10-11T01:24:38.795Z,7.50
2022-10-11T01:27:30.632Z,7.50
2022-10-11T01:30:07.535Z,7.40
2022-10-11T01:32:42.908Z,7.40
2022-10-11T01:35:21.047Z,7.40
2022-10-11T01:37:55.500Z,7.40
2022-10-11T01:40:26.842Z,7.40
2022-10-11T01:42:55.794Z,7.40
2022-10-11T01:45:23.212Z,7.30
2022-10-11T01:48:04.113Z,7.30
2022-10-11T01:50:36.810Z,7.30
2022-10-11T01:53:26.303Z,7.30
2022-10-11T01:55:57.501Z,7.30
2022-10-11T01:58:36.805Z,7.20
2022-10-11T02:01:15.216Z,7.20
2022-10-11T02:03:47.536Z,7.20
2022-10-11T02:06:20.444Z,7.20
2022-10-11T02:08:54.837Z,7.20
2022-10-11T02:11:25.746Z,7.20
2022-10-11T02:13:57.531Z,7.10
2022-10-11T02:16:36.901Z,7.10
2022-10-11T02:19:06.994Z,7.10
2022-10-11T02:21:36.108Z,7.10
2022-10-11T02:24:08.246Z,7.00
2022-10-11T02:26:36.554Z,7.00
2022-10-11T02:29:07.364Z,7.00
2022-10-11T02:31:35.798Z,7.00
2022-10-11T02:34:11.707Z,7.00
2022-10-11T02:36:47.242Z,7.00
2022-10-11T02:39:18.822Z,7.00
2022-10-11T02:41:47.872Z,6.90
2022-10-11T02:44:19.832Z,6.90
2022-10-11T02:46:48.929Z,6.90
2022-10-11T02:49:17.891Z,6.90
2022-10-11T02:51:44.680Z,6.90
2022-10-11T02:54:11.627Z,6.90
2022-10-11T02:56:38.420Z,6.90
2022-10-11T02:59:05.491Z,6.90
2022-10-11T03:01:32.343Z,6.90
2022-10-11T03:03:59.439Z,6.90
2022-10-11T03:06:27.790Z,6.90
2022-10-11T03:08:54.736Z,6.90
2022-10-11T03:11:21.576Z,6.80
2022-10-11T03:13:48.435Z,6.80
2022-10-11T03:16:15.442Z,6.80
2022-10-11T03:18:42.381Z,6.80
2022-10-11T03:21:09.481Z,6.80
2022-10-11T03:23:37.785Z,6.80
2022-10-11T03:26:05.176Z,6.80
2022-10-11T03:28:32.329Z,6.80
2022-10-11T03:30:59.313Z,6.70
2022-10-11T03:33:26.404Z,6.70
2022-10-11T03:35:53.473Z,6.70
2022-10-11T03:38:22.466Z,6.70
2022-10-11T03:40:50.842Z,6.70
2022-10-11T03:43:17.829Z,6.70
2022-10-11T03:45:44.697Z,6.70
2022-10-11T03:48:12.120Z,6.70
2022-10-11T03:50:39.618Z,6.70
2022-10-11T03:53:07.337Z,6.60
2022-10-11T03:55:34.297Z,6.60
2022-10-11T03:58:02.454Z,6.60
2022-10-11T04:00:29.244Z,6.60
2022-10-11T04:02:56.484Z,6.60
2022-10-11T04:05:23.351Z,6.60
2022-10-11T04:07:50.501Z,6.50
2022-10-11T04:10:17.826Z,6.50
2022-10-11T04:12:44.693Z,6.50
2022-10-11T04:15:13.421Z,6.50
2022-10-11T04:17:40.596Z,6.50
2022-10-11T04:20:09.106Z,6.50
2022-10-11T04:22:36.269Z,6.40
2022-10-11T04:25:03.660Z,6.50
2022-10-11T04:27:30.507Z,6.40
2022-10-11T04:29:57.722Z,6.40
2022-10-11T04:32:26.288Z,6.40
2022-10-11T04:34:53.468Z,6.40
2022-10-11T04:37:20.647Z,6.40
2022-10-11T04:39:47.560Z,6.40
2022-10-11T04:42:14.654Z,6.40
2022-10-11T04:44:41.488Z,6.40
2022-10-11T04:47:08.942Z,6.40
2022-10-11T04:49:37.080Z,6.30
2022-10-11T04:52:04.230Z,6.30
2022-10-11T04:54:31.045Z,6.40
2022-10-11T04:56:58.456Z,6.30
2022-10-11T04:59:25.315Z,6.30
2022-10-11T05:01:52.705Z,6.30
2022-10-11T05:04:19.752Z,6.30
2022-10-11T05:06:48.173Z,6.30
2022-10-11T05:09:15.232Z,6.30
2022-10-11T05:11:42.001Z,6.30
2022-10-11T05:14:08.871Z,6.30
2022-10-11T05:16:36.123Z,6.30
2022-10-11T05:19:03.029Z,6.30
2022-10-11T05:21:30.346Z,6.30
2022-10-11T05:23:58.829Z,6.30
2022-10-11T05:26:27.658Z,6.30
2022-10-11T05:28:55.183Z,6.30
2022-10-11T05:31:22.396Z,6.30
2022-10-11T05:33:49.824Z,6.30
2022-10-11T05:36:17.146Z,6.30
2022-10-11T05:38:43.955Z,6.30
2022-10-11T05:41:13.853Z,6.30
2022-10-11T05:43:41.600Z,6.30
2022-10-11T05:46:08.806Z,6.30
2022-10-11T05:48:36.041Z,6.30
2022-10-11T05:51:06.126Z,6.30
2022-10-11T05:53:33.464Z,6.30
2022-10-11T05:56:00.404Z,6.30
2022-10-11T05:58:28.895Z,6.30
2022-10-11T06:00:56.976Z,6.30
2022-10-11T06:03:24.480Z,6.30
2022-10-11T06:05:56.515Z,6.30
2022-10-11T06:08:23.920Z,6.30
2022-10-11T06:10:50.758Z,6.30
2022-10-11T06:13:17.539Z,6.40
2022-10-11T06:15:46.085Z,6.30
2022-10-11T06:18:13.270Z,6.40
2022-10-11T06:20:40.112Z,6.40
2022-10-11T06:23:07.202Z,6.40
2022-10-11T06:25:34.164Z,6.40
2022-10-11T06:28:00.984Z,6.50
2022-10-11T06:30:28.135Z,6.50
2022-10-11T06:32:59.078Z,6.50
2022-10-11T06:35:29.470Z,6.60
2022-10-11T06:37:56.310Z,6.60
2022-10-11T06:40:23.143Z,6.60
2022-10-11T06:42:50.642Z,6.70
2022-10-11T06:45:17.455Z,6.80
2022-10-11T06:47:44.708Z,6.80
2022-10-11T06:50:13.703Z,6.90
2022-10-11T06:52:40.546Z,6.90
2022-10-11T06:55:08.093Z,6.90
2022-10-11T06:57:34.978Z,7.00
2022-10-11T07:00:01.929Z,7.00
2022-10-11T07:02:28.991Z,7.10
2022-10-11T07:04:55.897Z,7.10
2022-10-11T07:07:24.178Z,7.20
2022-10-11T07:09:50.999Z,7.20
2022-10-11T07:12:17.757Z,7.30
2022-10-11T07:14:44.697Z,7.40
2022-10-11T07:17:11.692Z,7.50
2022-10-11T07:19:38.541Z,7.60
2022-10-11T07:22:05.530Z,7.70
2022-10-11T07:24:33.782Z,7.80
2022-10-11T07:27:00.654Z,7.90
2022-10-11T07:29:27.455Z,8.00
2022-10-11T07:31:54.529Z,8.10
2022-10-11T07:34:23.076Z,8.20
2022-10-11T07:36:49.879Z,8.40
2022-10-11T07:39:17.042Z,8.50
2022-10-11T07:41:46.137Z,8.70
2022-10-11T07:44:13.610Z,8.90
2022-10-11T07:46:40.428Z,9.20
2022-10-11T07:49:07.307Z,9.40
2022-10-11T07:51:34.267Z,9.70
2022-10-11T07:54:07.049Z,9.90
2022-10-11T07:56:35.115Z,10.20
2022-10-11T07:59:03.939Z,10.60
2022-10-11T08:01:32.115Z,11.00
2022-10-11T08:03:59.650Z,11.30
2022-10-11T08:06:30.742Z,11.50
2022-10-11T08:08:58.647Z,11.80
2022-10-11T08:11:27.235Z,12.00
2022-10-11T08:13:54.875Z,12.20
2022-10-11T08:16:23.129Z,12.50
2022-10-11T08:18:50.606Z,12.90
2022-10-11T08:21:19.100Z,13.40
2022-10-11T08:23:46.255Z,13.70
2022-10-11T08:26:13.446Z,14.20
2022-10-11T08:28:40.425Z,14.60
2022-10-11T08:31:07.718Z,15.10
2022-10-11T08:33:36.578Z,15.60
2022-10-11T08:36:05.268Z,16.00
2022-10-11T08:38:32.582Z,16.30
2022-10-11T08:41:01.149Z,16.60
2022-10-11T08:43:41.339Z,16.90
2022-10-11T08:46:10.502Z,17.30
2022-10-11T08:48:42.375Z,17.70
2022-10-11T08:51:22.240Z,18.20
2022-10-11T08:53:55.587Z,18.60
2022-10-11T08:56:24.034Z,19.00
2022-10-11T08:58:56.906Z,19.40
2022-10-11T09:01:26.868Z,19.50
2022-10-11T09:03:55.843Z,19.90
2022-10-11T09:06:33.299Z,20.00
2022-10-11T09:09:22.778Z,20.00
2022-10-11T09:12:05.510Z,20.10
2022-10-11T09:17:56.702Z,21.40
2022-10-11T09:20:46.179Z,21.90
2022-10-11T09:23:23.555Z,22.40
2022-10-11T09:25:55.661Z,22.90
2022-10-11T09:28:31.068Z,23.20
2022-10-11T09:30:59.446Z,23.30
2022-10-11T09:33:34.621Z,23.50
2022-10-11T09:36:14.097Z,23.60
2022-10-11T09:38:47.035Z,23.40
2022-10-11T09:41:23.308Z,23.30
2022-10-11T09:43:52.366Z,23.40
2022-10-11T09:46:22.609Z,23.80
2022-10-11T09:48:50.935Z,23.90
2022-10-11T09:51:22.862Z,24.40
2022-10-11T09:53:56.734Z,24.90
2022-10-11T09:56:25.280Z,25.00
2022-10-11T09:59:09.317Z,24.90
2022-10-11T10:01:37.113Z,24.70
2022-10-11T10:04:07.200Z,24.50
2022-10-11T10:06:36.266Z,24.40
2022-10-11T10:09:21.900Z,24.00
2022-10-11T10:11:49.189Z,23.70
2022-10-11T10:14:22.790Z,23.70
2022-10-11T10:16:57.777Z,23.80
2022-10-11T10:19:25.811Z,23.70
2022-10-11T10:21:58.607Z,23.30
2022-10-11T10:24:40.210Z,23.10
2022-10-11T10:27:18.057Z,22.80
2022-10-11T10:30:01.717Z,22.30
2022-10-11T10:32:32.472Z,22.00
2022-10-11T10:35:10.313Z,21.60
2022-10-11T10:37:59.226Z,21.20
2022-10-11T10:40:31.882Z,20.70
2022-10-11T10:42:58.868Z,20.40
2022-10-11T10:45:35.021Z,20.10
2022-10-11T10:48:20.069Z,19.80
2022-10-11T10:50:52.461Z,19.60
2022-10-11T10:53:27.611Z,19.50
2022-10-11T10:56:04.275Z,19.40
2022-10-11T10:58:43.376Z,19.30
2022-10-11T11:01:16.491Z,19.20
2022-10-11T11:03:47.880Z,19.00
2022-10-11T11:06:26.760Z,18.90
2022-10-11T11:09:06.760Z,18.90
2022-10-11T11:11:51.297Z,18.70
2022-10-11T11:14:27.108Z,18.60
2022-10-11T11:17:01.796Z,18.40
2022-10-11T11:19:42.865Z,18.50
2022-10-11T11:22:18.610Z,18.40
2022-10-11T11:24:56.189Z,18.30
2022-10-11T11:27:36.948Z,18.20
2022-10-11T11:30:08.218Z,18.20
2022-10-11T11:32:48.461Z,18.10
2022-10-11T11:35:25.755Z,18.10
2022-10-11T11:38:06.104Z,18.00
2022-10-11T11:40:39.376Z,18.00
2022-10-11T11:43:15.474Z,17.90
2022-10-11T11:45:47.922Z,17.90
2022-10-11T11:48:19.616Z,17.90
2022-10-11T11:50:53.221Z,17.90
2022-10-11T11:53:29.607Z,17.80
2022-10-11T11:56:01.545Z,17.80
2022-10-11T11:58:38.919Z,17.90
2022-10-11T12:01:18.782Z,17.90
2022-10-11T12:03:53.903Z,18.00
2022-10-11T12:06:25.989Z,18.10
2022-10-11T12:09:02.017Z,18.10
2022-10-11T12:11:40.933Z,18.10
2022-10-11T12:14:27.246Z,18.10
2022-10-11T12:17:10.225Z,18.10
2022-10-11T12:19:39.809Z,18.10
2022-10-11T12:22:39.256Z,18.10
2022-10-11T12:25:47.431Z,18.20
2022-10-11T12:29:00.008Z,18.20
2022-10-11T12:31:29.129Z,18.20
2022-10-11T12:34:18.512Z,18.30
2022-10-11T12:36:47.056Z,18.20
2022-10-11T12:39:50.608Z,18.20
2022-10-11T12:42:29.704Z,18.20
2022-10-11T12:45:29.213Z,18.20
2022-10-11T12:48:07.163Z,18.10
2022-10-11T12:50:45.106Z,18.00
2022-10-11T12:53:22.399Z,18.00
2022-10-11T12:55:57.436Z,18.00
2022-10-11T12:58:29.002Z,17.90
2022-10-11T13:01:23.199Z,17.90
2022-10-11T13:03:58.867Z,17.90
2022-10-11T13:06:29.253Z,17.80
2022-10-11T13:09:01.169Z,17.70
2022-10-11T13:11:31.509Z,17.60
2022-10-11T13:14:05.324Z,17.60
2022-10-11T13:16:51.567Z,17.70
2022-10-11T13:19:23.350Z,17.70
2022-10-11T13:21:54.322Z,17.80
2022-10-11T13:24:23.112Z,17.70
2022-10-11T13:26:52.936Z,17.80
2022-10-11T13:29:29.682Z,17.80
2022-10-11T13:31:58.997Z,17.90
2022-10-11T13:34:26.146Z,17.90
2022-10-11T13:36:57.553Z,18.10
2022-10-11T13:39:31.203Z,18.20
2022-10-11T13:42:00.128Z,18.20
2022-10-11T13:44:27.694Z,18.10
2022-10-11T13:46:54.811Z,18.00
2022-10-11T13:49:37.139Z,18.00
2022-10-11T13:52:07.215Z,18.00
2022-10-11T13:54:58.478Z,17.90
2022-10-11T13:57:35.274Z,17.90
2022-10-11T14:00:07.307Z,17.80
2022-10-11T14:02:34.299Z,17.70
2022-10-11T14:05:02.723Z,17.70
2022-10-11T14:07:35.799Z,17.60
2022-10-11T14:10:03.491Z,17.50
2022-10-11T14:12:33.670Z,17.40
2022-10-11T14:15:02.534Z,17.40
2022-10-11T14:17:39.089Z,17.40
2022-10-11T14:20:17.131Z,17.40
2022-10-11T14:22:51.268Z,17.30
2022-10-11T14:25:18.676Z,17.30
2022-10-11T14:27:49.820Z,17.30
2022-10-11T14:30:25.691Z,17.30
2022-10-11T14:32:55.143Z,17.20
2022-10-11T14:35:25.955Z,17.20
2022-10-11T14:37:53.533Z,17.20
2022-10-11T14:40:23.316Z,17.10
2022-10-11T14:42:50.877Z,17.10
2022-10-11T14:45:18.454Z,17.00
2022-10-11T14:47:45.401Z,17.00
2022-10-11T14:50:37.010Z,16.90
2022-10-11T14:53:05.768Z,16.90
2022-10-11T14:55:34.603Z,16.90
2022-10-11T14:58:02.039Z,16.90
2022-10-11T15:00:30.548Z,16.80
2022-10-11T15:02:59.576Z,16.70
2022-10-11T15:05:33.686Z,16.70
2022-10-11T15:08:02.713Z,16.70
2022-10-11T15:10:34.485Z,16.60
2022-10-11T15:13:02.302Z,16.60
2022-10-11T15:15:32.903Z,16.60
2022-10-11T15:18:01.891Z,16.50
2022-10-11T15:20:31.804Z,16.50
2022-10-11T15:23:00.641Z,16.40
2022-10-11T15:25:29.457Z,16.40
2022-10-11T15:27:57.446Z,16.50
2022-10-11T15:30:26.443Z,16.50
2022-10-11T15:32:54.159Z,16.50
2022-10-11T15:35:22.858Z,16.50
2022-10-11T15:37:57.077Z,16.40
2022-10-11T15:40:26.136Z,16.40
2022-10-11T15:42:55.265Z,16.40
2022-10-11T15:45:23.360Z,16.40
2022-10-11T15:47:50.633Z,16.30
2022-10-11T15:50:24.299Z,16.30
2022-10-11T15:52:51.824Z,16.20
2022-10-11T15:55:19.047Z,16.10
2022-10-11T15:57:45.914Z,16.10
2022-10-11T16:00:17.589Z,16.00
2022-10-11T16:02:48.391Z,16.00
2022-10-11T16:05:15.245Z,15.90
2022-10-11T16:07:42.555Z,15.80
2022-10-11T16:10:10.066Z,15.80
2022-10-11T16:12:37.168Z,15.70
2022-10-11T16:15:04.900Z,15.70
2022-10-11T16:17:33.187Z,15.60
2022-10-11T16:20:00.834Z,15.50
2022-10-11T16:22:27.750Z,15.40
2022-10-11T16:24:54.873Z,15.40
2022-10-11T16:27:21.784Z,15.30
2022-10-11T16:29:48.737Z,15.20
2022-10-11T16:32:15.658Z,15.20
2022-10-11T16:34:44.263Z,15.10
2022-10-11T16:37:12.771Z,15.00
2022-10-11T16:39:40.527Z,14.90
2022-10-11T16:42:07.972Z,14.90
2022-10-11T16:44:37.988Z,14.80
2022-10-11T16:47:05.525Z,14.70
2022-10-11T16:49:33.189Z,14.60
2022-10-11T16:52:03.780Z,14.50
2022-10-11T16:54:31.509Z,14.40
2022-10-11T16:56:58.970Z,14.40
2022-10-11T16:59:26.132Z,14.20
2022-10-11T17:01:53.019Z,14.20
2022-10-11T17:04:20.136Z,14.10
2022-10-11T17:06:47.010Z,14.00
2022-10-11T17:09:16.055Z,13.90
2022-10-11T17:11:43.293Z,13.90
2022-10-11T17:14:11.671Z,13.80
2022-10-11T17:16:38.993Z,13.70
2022-10-11T17:19:10.488Z,13.60
2022-10-11T17:21:37.386Z,13.60
2022-10-11T17:24:05.615Z,13.50
2022-10-11T17:26:34.303Z,13.40
2022-10-11T17:29:01.478Z,13.40
2022-10-11T17:31:29.650Z,13.40
2022-10-11T17:33:59.537Z,13.30
2022-10-11T17:36:30.437Z,13.20
2022-10-11T17:38:57.956Z,13.10
2022-10-11T17:41:29.408Z,13.10
2022-10-11T17:44:01.181Z,13.00
2022-10-11T17:46:32.303Z,13.00
2022-10-11T17:49:00.381Z,12.90
2022-10-11T17:51:27.496Z,12.80
2022-10-11T17:53:54.609Z,12.80
2022-10-11T17:56:27.831Z,12.70
2022-10-11T17:58:57.688Z,12.70
2022-10-11T18:01:28.126Z,12.60
2022-10-11T18:03:57.560Z,12.60
2022-10-11T18:06:26.671Z,12.50
2022-10-11T18:08:54.086Z,12.40
2022-10-11T18:11:22.039Z,12.40
2022-10-11T18:13:50.926Z,12.40
2022-10-11T18:16:19.612Z,12.30
2022-10-11T18:18:47.861Z,12.30
2022-10-11T18:21:16.160Z,12.20
2022-10-11T18:23:43.323Z,12.20
2022-10-11T18:26:12.131Z,12.10
2022-10-11T18:28:45.383Z,12.10
2022-10-11T18:31:15.535Z,12.10
2022-10-11T18:33:45.456Z,12.00
2022-10-11T18:36:16.380Z,12.00
2022-10-11T18:38:46.563Z,11.90
2022-10-11T18:41:15.052Z,11.90
2022-10-11T18:43:42.580Z,11.90
2022-10-11T18:46:10.995Z,11.80
2022-10-11T18:48:44.216Z,11.80
2022-10-11T18:51:15.328Z,11.70
2022-10-11T18:53:42.425Z,11.70
2022-10-11T18:56:11.471Z,11.70
2022-10-11T18:58:39.655Z,11.60
2022-10-11T19:01:07.887Z,11.50
2022-10-11T19:03:35.601Z,11.50
2022-10-11T19:06:04.752Z,11.40
2022-10-11T19:08:34.069Z,11.40
2022-10-11T19:11:06.060Z,11.40
2022-10-11T19:13:33.574Z,11.30
2022-10-11T19:16:05.533Z,11.30
2022-10-11T19:18:33.257Z,11.30
2022-10-11T19:21:04.303Z,11.20
2022-10-11T19:23:39.410Z,11.10
2022-10-11T19:26:07.497Z,11.10
2022-10-11T19:28:34.815Z,11.00
2022-10-11T19:31:03.000Z,11.00
2022-10-11T19:33:31.235Z,11.00
2022-10-11T19:35:59.312Z,10.90
2022-10-11T19:38:26.316Z,10.90
2022-10-11T19:40:55.298Z,10.90
2022-10-11T19:43:22.653Z,10.80
2022-10-11T19:45:49.638Z,10.80
2022-10-11T19:48:16.953Z,10.70
2022-10-11T19:50:43.838Z,10.70
2022-10-11T19:53:11.270Z,10.70
2022-10-11T19:55:46.277Z,10.60
2022-10-11T19:58:14.671Z,10.60
2022-10-11T20:00:41.508Z,10.60
2022-10-11T20:03:09.216Z,10.60
2022-10-11T20:05:37.305Z,10.50
2022-10-11T20:08:04.418Z,10.40
2022-10-11T20:10:31.401Z,10.40
2022-10-11T20:12:58.232Z,10.40
2022-10-11T20:15:26.483Z,10.40
2022-10-11T20:17:53.602Z,10.30
2022-10-11T20:20:20.623Z,10.40
2022-10-11T20:22:48.963Z,10.30
2022-10-11T20:25:15.919Z,10.20
2022-10-11T20:27:43.352Z,10.20
2022-10-11T20:30:12.136Z,10.20
2022-10-11T20:32:40.416Z,10.20
2022-10-11T20:35:09.385Z,10.10
2022-10-11T20:37:39.753Z,10.10
2022-10-11T20:40:07.712Z,10.00
2022-10-11T20:42:34.937Z,10.00
2022-10-11T20:45:02.288Z,10.00
2022-10-11T20:47:35.567Z,9.90
2022-10-11T20:50:04.921Z,9.90
2022-10-11T20:52:32.440Z,9.90
2022-10-11T20:54:59.337Z,9.90
2022-10-11T20:57:26.297Z,9.90
2022-10-11T20:59:53.113Z,9.80
2022-10-11T21:02:20.534Z,9.80
2022-10-11T21:04:47.316Z,9.80
2022-10-11T21:07:15.455Z,9.70
2022-10-11T21:09:42.263Z,9.70
2022-10-11T21:12:09.372Z,9.70
2022-10-11T21:14:36.143Z,9.70
2022-10-11T21:17:03.219Z,9.60
2022-10-11T21:19:30.156Z,9.60
2022-10-11T21:21:57.488Z,9.60
2022-10-11T21:24:25.724Z,9.50
2022-10-11T21:26:55.828Z,9.50
2022-10-11T21:29:25.203Z,9.50
2022-10-11T21:31:52.496Z,9.50
2022-10-11T21:34:19.323Z,9.40
2022-10-11T21:36:46.480Z,9.40
2022-10-11T21:39:13.276Z,9.40
2022-10-11T21:41:42.300Z,9.40
2022-10-11T21:44:09.423Z,9.40
2022-10-11T21:47:01.725Z,9.30
2022-10-11T21:49:23.523Z,9.30
2022-10-11T21:51:53.898Z,9.30
2022-10-11T21:54:20.991Z,9.30
2022-10-11T21:56:49.158Z,9.30
2022-10-11T21:59:16.147Z,9.20
2022-10-11T22:01:43.648Z,9.20
2022-10-11T22:04:12.047Z,9.10
2022-10-11T22:06:39.304Z,9.10
2022-10-11T22:09:07.391Z,9.10
2022-10-11T22:11:34.691Z,9.00
2022-10-11T22:14:02.975Z,9.00
2022-10-11T22:16:32.463Z,9.00
2022-10-11T22:19:00.028Z,9.00
2022-10-11T22:21:26.988Z,9.00
2022-10-11T22:23:54.496Z,9.00
2022-10-11T22:26:24.437Z,9.00
2022-10-11T22:28:51.547Z,8.90
2022-10-11T22:31:20.796Z,8.90
2022-10-11T22:33:47.910Z,8.90
2022-10-11T22:36:19.139Z,8.90
2022-10-11T22:38:46.340Z,8.90
2022-10-11T22:41:13.655Z,8.90
2022-10-11T22:43:40.544Z,8.90
2022-10-11T22:46:07.580Z,8.90
2022-10-11T22:48:36.305Z,8.90
2022-10-11T22:51:03.633Z,8.90
2022-10-11T22:53:30.793Z,8.80
2022-10-11T22:55:57.568Z,8.80
2022-10-11T22:58:24.788Z,8.80
2022-10-11T23:00:51.600Z,8.70
2022-10-11T23:03:19.122Z,8.70
2022-10-11T23:05:55.986Z,8.70
2022-10-11T23:08:23.062Z,8.70
2022-10-11T23:10:50.385Z,8.60
2022-10-11T23:13:17.594Z,8.60
2022-10-11T23:15:45.096Z,8.60
2022-10-11T23:18:12.527Z,8.60
2022-10-11T23:20:39.615Z,8.60
2022-10-11T23:23:07.905Z,8.50
2022-10-11T23:25:34.840Z,8.50
2022-10-11T23:28:02.172Z,8.50
2022-10-11T23:30:29.627Z,8.50
2022-10-11T23:32:56.525Z,8.50
2022-10-11T23:35:23.611Z,8.50
2022-10-11T23:37:50.777Z,8.50
2022-10-11T23:40:20.047Z,8.40
2022-10-11T23:42:46.885Z,8.50
2022-10-11T23:45:13.783Z,8.40
2022-10-11T23:47:41.285Z,8.40
2022-10-11T23:50:09.413Z,8.40
2022-10-11T23:52:36.348Z,8.40
2022-10-11T23:55:03.860Z,8.40
2022-10-11T23:57:32.154Z,8.40
2022-10-11T23:59:59.372Z,8.40
